sensor_id;sensor_type;location;lat;lon;timestamp;pressure;altitude;pressure_sealevel;temperature;humidity
64683;BME280;51107;47.652;19.016;2023-07-09T00:02:13;100327.31;;;18.77;68.12
64683;BME280;51107;47.652;19.016;2023-07-09T00:04:43;100326.44;;;18.70;68.34
64683;BME280;51107;47.652;19.016;2023-07-09T00:07:21;100338.44;;;18.72;68.48
64683;BME280;51107;47.652;19.016;2023-07-09T00:09:51;100331.47;;;18.64;69.17
64683;BME280;51107;47.652;19.016;2023-07-09T00:12:19;100338.63;;;18.49;70.50
64683;BME280;51107;47.652;19.016;2023-07-09T00:14:48;100337.66;;;18.50;70.34
64683;BME280;51107;47.652;19.016;2023-07-09T00:17:31;100342.09;;;18.49;70.65
64683;BME280;51107;47.652;19.016;2023-07-09T00:20:00;100344.31;;;18.46;70.54
64683;BME280;51107;47.652;19.016;2023-07-09T00:22:28;100350.19;;;18.48;70.19
64683;BME280;51107;47.652;19.016;2023-07-09T00:24:56;100343.84;;;18.42;70.46
64683;BME280;51107;47.652;19.016;2023-07-09T00:27:27;100336.50;;;18.38;70.93
64683;BME280;51107;47.652;19.016;2023-07-09T00:29:57;100340.03;;;18.45;69.80
64683;BME280;51107;47.652;19.016;2023-07-09T00:32:26;100332.84;;;18.39;69.76
64683;BME280;51107;47.652;19.016;2023-07-09T00:34:56;100335.06;;;18.35;70.10
64683;BME280;51107;47.652;19.016;2023-07-09T00:37:26;100340.75;;;18.39;70.04
64683;BME280;51107;47.652;19.016;2023-07-09T00:39:54;100339.50;;;18.34;70.24
64683;BME280;51107;47.652;19.016;2023-07-09T00:42:22;100343.53;;;18.30;70.25
64683;BME280;51107;47.652;19.016;2023-07-09T00:44:53;100347.31;;;18.21;70.71
64683;BME280;51107;47.652;19.016;2023-07-09T00:47:26;100338.13;;;18.17;71.25
64683;BME280;51107;47.652;19.016;2023-07-09T00:50:04;100342.34;;;18.11;72.00
64683;BME280;51107;47.652;19.016;2023-07-09T00:52:46;100331.72;;;18.05;72.30
64683;BME280;51107;47.652;19.016;2023-07-09T00:55:23;100326.53;;;17.96;72.30
64683;BME280;51107;47.652;19.016;2023-07-09T00:57:53;100326.53;;;17.96;72.29
64683;BME280;51107;47.652;19.016;2023-07-09T01:00:31;100325.37;;;17.99;71.82
64683;BME280;51107;47.652;19.016;2023-07-09T01:03:27;100325.09;;;17.94;72.43
64683;BME280;51107;47.652;19.016;2023-07-09T01:05:57;100333.06;;;18.01;71.12
64683;BME280;51107;47.652;19.016;2023-07-09T01:08:29;100329.78;;;17.98;71.25
64683;BME280;51107;47.652;19.016;2023-07-09T01:10:59;100323.06;;;17.96;71.42
64683;BME280;51107;47.652;19.016;2023-07-09T01:13:29;100333.69;;;17.88;72.09
64683;BME280;51107;47.652;19.016;2023-07-09T01:16:00;100333.69;;;17.88;72.67
64683;BME280;51107;47.652;19.016;2023-07-09T01:18:30;100329.38;;;17.95;71.86
64683;BME280;51107;47.652;19.016;2023-07-09T01:21:03;100324.72;;;17.97;71.57
64683;BME280;51107;47.652;19.016;2023-07-09T01:23:35;100330.38;;;17.94;71.92
64683;BME280;51107;47.652;19.016;2023-07-09T01:26:04;100330.25;;;17.87;72.62
64683;BME280;51107;47.652;19.016;2023-07-09T01:28:33;100329.97;;;17.82;72.93
64683;BME280;51107;47.652;19.016;2023-07-09T01:31:01;100330.34;;;17.79;73.18
64683;BME280;51107;47.652;19.016;2023-07-09T01:33:33;100332.19;;;17.63;73.74
64683;BME280;51107;47.652;19.016;2023-07-09T01:36:01;100336.47;;;17.64;74.64
64683;BME280;51107;47.652;19.016;2023-07-09T01:38:30;100337.47;;;17.63;74.18
64683;BME280;51107;47.652;19.016;2023-07-09T01:40:59;100338.19;;;17.57;74.42
64683;BME280;51107;47.652;19.016;2023-07-09T01:43:28;100336.47;;;17.64;74.21
64683;BME280;51107;47.652;19.016;2023-07-09T01:45:57;100345.66;;;17.69;73.37
64683;BME280;51107;47.652;19.016;2023-07-09T01:48:27;100341.38;;;17.68;73.55
64683;BME280;51107;47.652;19.016;2023-07-09T01:50:56;100340.72;;;17.65;73.46
64683;BME280;51107;47.652;19.016;2023-07-09T01:53:26;100346.38;;;17.62;73.81
64683;BME280;51107;47.652;19.016;2023-07-09T01:55:54;100340.09;;;17.63;73.56
64683;BME280;51107;47.652;19.016;2023-07-09T01:58:23;100337.47;;;17.48;74.50
64683;BME280;51107;47.652;19.016;2023-07-09T02:00:53;100346.25;;;17.41;75.14
64683;BME280;51107;47.652;19.016;2023-07-09T02:03:22;100344.91;;;17.30;76.62
64683;BME280;51107;47.652;19.016;2023-07-09T02:05:53;100342.63;;;17.27;77.19
64683;BME280;51107;47.652;19.016;2023-07-09T02:08:23;100339.81;;;17.28;75.50
64683;BME280;51107;47.652;19.016;2023-07-09T02:10:51;100335.09;;;17.24;76.08
64683;BME280;51107;47.652;19.016;2023-07-09T02:13:19;100330.53;;;17.18;76.04
64683;BME280;51107;47.652;19.016;2023-07-09T02:15:48;100336.09;;;17.23;75.69
64683;BME280;51107;47.652;19.016;2023-07-09T02:18:16;100347.06;;;17.11;77.08
64683;BME280;51107;47.652;19.016;2023-07-09T02:20:47;100351.22;;;17.06;78.15
64683;BME280;51107;47.652;19.016;2023-07-09T02:23:16;100344.50;;;17.03;77.93
64683;BME280;51107;47.652;19.016;2023-07-09T02:25:44;100351.59;;;17.03;78.13
64683;BME280;51107;47.652;19.016;2023-07-09T02:28:13;100352.87;;;17.07;77.47
64683;BME280;51107;47.652;19.016;2023-07-09T02:30:41;100347.16;;;17.18;76.32
64683;BME280;51107;47.652;19.016;2023-07-09T02:33:09;100347.78;;;17.20;76.00
64683;BME280;51107;47.652;19.016;2023-07-09T02:35:38;100346.63;;;17.23;76.16
64683;BME280;51107;47.652;19.016;2023-07-09T02:38:07;100347.59;;;17.22;76.24
64683;BME280;51107;47.652;19.016;2023-07-09T02:40:35;100347.44;;;17.08;76.79
64683;BME280;51107;47.652;19.016;2023-07-09T02:43:03;100346.53;;;17.01;77.61
64683;BME280;51107;47.652;19.016;2023-07-09T02:45:32;100351.59;;;17.03;77.67
64683;BME280;51107;47.652;19.016;2023-07-09T02:48:00;100348.41;;;17.07;76.96
64683;BME280;51107;47.652;19.016;2023-07-09T02:50:31;100350.03;;;16.93;78.23
64683;BME280;51107;47.652;19.016;2023-07-09T02:52:59;100345.06;;;16.98;77.64
64683;BME280;51107;47.652;19.016;2023-07-09T02:55:28;100347.03;;;16.96;77.38
64683;BME280;51107;47.652;19.016;2023-07-09T02:57:57;100351.00;;;16.92;77.50
64683;BME280;51107;47.652;19.016;2023-07-09T03:00:26;100349.47;;;16.98;77.28
64683;BME280;51107;47.652;19.016;2023-07-09T03:02:54;100353.81;;;16.91;78.16
64683;BME280;51107;47.652;19.016;2023-07-09T03:05:22;100352.00;;;16.91;78.12
64683;BME280;51107;47.652;19.016;2023-07-09T03:07:51;100355.66;;;16.90;78.55
64683;BME280;51107;47.652;19.016;2023-07-09T03:10:19;100355.47;;;16.92;78.32
64683;BME280;51107;47.652;19.016;2023-07-09T03:12:47;100359.94;;;16.83;78.64
64683;BME280;51107;47.652;19.016;2023-07-09T03:15:16;100363.03;;;16.87;77.96
64683;BME280;51107;47.652;19.016;2023-07-09T03:17:44;100364.66;;;16.96;79.05
64683;BME280;51107;47.652;19.016;2023-07-09T03:20:12;100368.38;;;17.02;78.65
64683;BME280;51107;47.652;19.016;2023-07-09T03:22:42;100369.00;;;17.04;77.50
64683;BME280;51107;47.652;19.016;2023-07-09T03:25:10;100367.50;;;17.09;78.48
64683;BME280;51107;47.652;19.016;2023-07-09T03:27:38;100372.41;;;17.12;77.52
64683;BME280;51107;47.652;19.016;2023-07-09T03:30:07;100364.88;;;17.09;77.87
64683;BME280;51107;47.652;19.016;2023-07-09T03:32:35;100370.94;;;17.10;78.47
64683;BME280;51107;47.652;19.016;2023-07-09T03:35:03;100366.41;;;17.19;77.45
64683;BME280;51107;47.652;19.016;2023-07-09T03:37:32;100372.13;;;17.22;77.09
64683;BME280;51107;47.652;19.016;2023-07-09T03:40:00;100369.69;;;17.21;77.35
64683;BME280;51107;47.652;19.016;2023-07-09T03:42:29;100367.94;;;17.13;78.37
64683;BME280;51107;47.652;19.016;2023-07-09T03:44:57;100366.59;;;17.17;78.44
64683;BME280;51107;47.652;19.016;2023-07-09T03:47:25;100374.84;;;17.14;78.59
64683;BME280;51107;47.652;19.016;2023-07-09T03:49:54;100370.69;;;17.20;77.16
64683;BME280;51107;47.652;19.016;2023-07-09T03:52:22;100369.69;;;17.21;78.70
64683;BME280;51107;47.652;19.016;2023-07-09T03:54:50;100368.25;;;17.33;78.32
64683;BME280;51107;47.652;19.016;2023-07-09T03:57:18;100369.34;;;17.39;77.84
64683;BME280;51107;47.652;19.016;2023-07-09T03:59:47;100371.63;;;17.42;77.79
64683;BME280;51107;47.652;19.016;2023-07-09T04:02:15;100366.16;;;17.43;77.97
64683;BME280;51107;47.652;19.016;2023-07-09T04:04:44;100373.69;;;17.46;79.18
64683;BME280;51107;47.652;19.016;2023-07-09T04:07:15;100365.87;;;17.53;78.41
64683;BME280;51107;47.652;19.016;2023-07-09T04:09:48;100372.59;;;17.56;78.08
64683;BME280;51107;47.652;19.016;2023-07-09T04:12:16;100377.25;;;17.54;80.38
64683;BME280;51107;47.652;19.016;2023-07-09T04:14:44;100376.69;;;17.58;79.79
64683;BME280;51107;47.652;19.016;2023-07-09T04:17:12;100385.25;;;17.60;79.71
64683;BME280;51107;47.652;19.016;2023-07-09T04:19:41;100377.34;;;17.60;79.49
64683;BME280;51107;47.652;19.016;2023-07-09T04:22:10;100383.06;;;17.64;79.17
64683;BME280;51107;47.652;19.016;2023-07-09T04:24:39;100385.69;;;17.64;78.78
64683;BME280;51107;47.652;19.016;2023-07-09T04:27:08;100387.44;;;17.72;77.97
64683;BME280;51107;47.652;19.016;2023-07-09T04:29:36;100383.63;;;17.74;78.90
64683;BME280;51107;47.652;19.016;2023-07-09T04:32:11;100385.22;;;17.75;78.44
64683;BME280;51107;47.652;19.016;2023-07-09T04:34:42;100384.69;;;17.80;78.26
64683;BME280;51107;47.652;19.016;2023-07-09T04:37:11;100383.16;;;17.86;79.48
64683;BME280;51107;47.652;19.016;2023-07-09T04:39:40;100382.59;;;17.90;78.88
64683;BME280;51107;47.652;19.016;2023-07-09T04:42:14;100382.25;;;17.93;78.82
64683;BME280;51107;47.652;19.016;2023-07-09T04:44:45;100389.81;;;17.96;79.86
64683;BME280;51107;47.652;19.016;2023-07-09T04:47:14;100389.06;;;18.03;78.97
64683;BME280;51107;47.652;19.016;2023-07-09T04:49:42;100377.31;;;18.05;77.81
64683;BME280;51107;47.652;19.016;2023-07-09T04:52:11;100383.25;;;18.07;76.00
64683;BME280;51107;47.652;19.016;2023-07-09T04:54:40;100383.06;;;18.09;76.41
64683;BME280;51107;47.652;19.016;2023-07-09T04:57:11;100386.78;;;18.14;77.30
64683;BME280;51107;47.652;19.016;2023-07-09T04:59:40;100380.75;;;18.21;76.43
64683;BME280;51107;47.652;19.016;2023-07-09T05:02:09;100396.44;;;18.29;76.49
64683;BME280;51107;47.652;19.016;2023-07-09T05:04:38;100390.63;;;18.33;74.98
64683;BME280;51107;47.652;19.016;2023-07-09T05:07:06;100394.53;;;18.38;74.72
64683;BME280;51107;47.652;19.016;2023-07-09T05:09:35;100385.44;;;18.40;75.99
64683;BME280;51107;47.652;19.016;2023-07-09T05:12:04;100389.34;;;18.44;75.40
64683;BME280;51107;47.652;19.016;2023-07-09T05:14:33;100392.03;;;18.51;74.49
64683;BME280;51107;47.652;19.016;2023-07-09T05:17:01;100391.03;;;18.52;73.76
64683;BME280;51107;47.652;19.016;2023-07-09T05:19:30;100397.56;;;18.56;74.34
64683;BME280;51107;47.652;19.016;2023-07-09T05:22:01;100393.22;;;18.70;73.92
64683;BME280;51107;47.652;19.016;2023-07-09T05:24:29;100390.97;;;18.67;74.95
64683;BME280;51107;47.652;19.016;2023-07-09T05:26:57;100388.00;;;18.77;75.82
64683;BME280;51107;47.652;19.016;2023-07-09T05:29:26;100385.53;;;18.90;74.54
64683;BME280;51107;47.652;19.016;2023-07-09T05:31:55;100396.56;;;19.00;73.73
64683;BME280;51107;47.652;19.016;2023-07-09T05:34:23;100377.13;;;19.08;74.16
64683;BME280;51107;47.652;19.016;2023-07-09T05:36:51;100383.72;;;19.19;72.50
64683;BME280;51107;47.652;19.016;2023-07-09T05:39:19;100380.28;;;19.25;72.72
64683;BME280;51107;47.652;19.016;2023-07-09T05:41:48;100379.75;;;19.37;72.58
64683;BME280;51107;47.652;19.016;2023-07-09T05:44:16;100380.84;;;19.49;72.11
64683;BME280;51107;47.652;19.016;2023-07-09T05:46:45;100388.06;;;19.62;72.23
64683;BME280;51107;47.652;19.016;2023-07-09T05:49:13;100381.41;;;19.73;70.75
64683;BME280;51107;47.652;19.016;2023-07-09T05:51:41;100375.19;;;19.87;69.78
64683;BME280;51107;47.652;19.016;2023-07-09T05:54:10;100379.69;;;20.00;71.08
64683;BME280;51107;47.652;19.016;2023-07-09T05:56:39;100380.97;;;20.11;69.70
64683;BME280;51107;47.652;19.016;2023-07-09T05:59:07;100374.09;;;20.23;69.33
64683;BME280;51107;47.652;19.016;2023-07-09T06:01:36;100375.56;;;20.39;69.55
64683;BME280;51107;47.652;19.016;2023-07-09T06:04:05;100383.91;;;20.56;70.79
64683;BME280;51107;47.652;19.016;2023-07-09T06:06:34;100378.69;;;20.69;68.58
64683;BME280;51107;47.652;19.016;2023-07-09T06:09:02;100378.28;;;20.79;68.33
64683;BME280;51107;47.652;19.016;2023-07-09T06:11:31;100389.91;;;20.92;68.27
64683;BME280;51107;47.652;19.016;2023-07-09T06:13:59;100380.91;;;21.13;68.95
64683;BME280;51107;47.652;19.016;2023-07-09T06:16:28;100385.78;;;21.23;69.69
64683;BME280;51107;47.652;19.016;2023-07-09T06:18:56;100385.41;;;21.32;74.37
64683;BME280;51107;47.652;19.016;2023-07-09T06:21:25;100393.53;;;21.37;75.94
64683;BME280;51107;47.652;19.016;2023-07-09T06:23:53;100385.34;;;21.46;74.92
64683;BME280;51107;47.652;19.016;2023-07-09T06:26:21;100389.84;;;21.52;75.86
64683;BME280;51107;47.652;19.016;2023-07-09T06:28:50;100390.06;;;21.57;75.11
64683;BME280;51107;47.652;19.016;2023-07-09T06:31:18;100393.72;;;21.63;74.99
64683;BME280;51107;47.652;19.016;2023-07-09T06:33:49;100389.78;;;21.79;75.68
64683;BME280;51107;47.652;19.016;2023-07-09T06:36:18;100394.25;;;21.92;75.80
64683;BME280;51107;47.652;19.016;2023-07-09T06:38:46;100388.28;;;21.96;74.92
64683;BME280;51107;47.652;19.016;2023-07-09T06:41:15;100394.34;;;22.10;73.93
64683;BME280;51107;47.652;19.016;2023-07-09T06:43:43;100390.41;;;22.26;73.19
64683;BME280;51107;47.652;19.016;2023-07-09T06:46:14;100393.41;;;22.36;73.42
64683;BME280;51107;47.652;19.016;2023-07-09T06:48:42;100389.84;;;22.49;73.71
64683;BME280;51107;47.652;19.016;2023-07-09T06:51:11;100396.94;;;22.62;73.80
64683;BME280;51107;47.652;19.016;2023-07-09T06:53:39;100398.31;;;22.71;72.43
64683;BME280;51107;47.652;19.016;2023-07-09T06:56:12;100395.53;;;22.85;73.12
64683;BME280;51107;47.652;19.016;2023-07-09T06:58:40;100391.31;;;23.02;72.84
64683;BME280;51107;47.652;19.016;2023-07-09T07:01:08;100392.25;;;23.15;71.06
64683;BME280;51107;47.652;19.016;2023-07-09T07:03:39;100394.50;;;23.36;71.84
64683;BME280;51107;47.652;19.016;2023-07-09T07:06:08;100398.97;;;23.61;70.02
64683;BME280;51107;47.652;19.016;2023-07-09T07:08:37;100397.41;;;23.72;68.02
64683;BME280;51107;47.652;19.016;2023-07-09T07:11:05;100397.66;;;23.89;68.81
64683;BME280;51107;47.652;19.016;2023-07-09T07:13:37;100396.50;;;24.15;68.87
64683;BME280;51107;47.652;19.016;2023-07-09T07:16:08;100393.44;;;24.30;68.33
64683;BME280;51107;47.652;19.016;2023-07-09T07:18:37;100391.28;;;24.51;68.06
64683;BME280;51107;47.652;19.016;2023-07-09T07:21:06;100397.16;;;24.71;66.39
64683;BME280;51107;47.652;19.016;2023-07-09T07:23:34;100408.41;;;24.85;65.04
64683;BME280;51107;47.652;19.016;2023-07-09T07:26:03;100393.47;;;25.20;65.82
64683;BME280;51107;47.652;19.016;2023-07-09T07:28:34;100402.06;;;25.46;63.41
64683;BME280;51107;47.652;19.016;2023-07-09T07:31:05;100402.59;;;25.71;62.58
64683;BME280;51107;47.652;19.016;2023-07-09T07:33:40;100394.75;;;25.93;62.68
64683;BME280;51107;47.652;19.016;2023-07-09T07:36:12;100401.09;;;26.16;62.09
64683;BME280;51107;47.652;19.016;2023-07-09T07:38:58;100400.34;;;26.50;62.99
64683;BME280;51107;47.652;19.016;2023-07-09T07:41:27;100403.09;;;26.55;60.65
64683;BME280;51107;47.652;19.016;2023-07-09T07:43:55;100403.16;;;26.89;59.31
64683;BME280;51107;47.652;19.016;2023-07-09T07:46:23;100406.53;;;27.18;59.17
64683;BME280;51107;47.652;19.016;2023-07-09T07:48:52;100402.81;;;27.19;58.46
64683;BME280;51107;47.652;19.016;2023-07-09T07:51:20;100399.25;;;27.75;58.22
64683;BME280;51107;47.652;19.016;2023-07-09T07:53:50;100408.72;;;27.83;56.19
64683;BME280;51107;47.652;19.016;2023-07-09T07:56:18;100400.19;;;28.08;52.99
64683;BME280;51107;47.652;19.016;2023-07-09T07:58:47;100399.00;;;28.53;54.62
64683;BME280;51107;47.652;19.016;2023-07-09T08:01:15;100390.44;;;28.84;51.22
64683;BME280;51107;47.652;19.016;2023-07-09T08:03:44;100388.44;;;28.69;51.95
64683;BME280;51107;47.652;19.016;2023-07-09T08:06:12;100385.09;;;28.89;49.76
64683;BME280;51107;47.652;19.016;2023-07-09T08:08:40;100393.06;;;29.21;52.99
64683;BME280;51107;47.652;19.016;2023-07-09T08:11:09;100394.03;;;29.47;51.09
64683;BME280;51107;47.652;19.016;2023-07-09T08:13:38;100395.38;;;29.50;49.98
64683;BME280;51107;47.652;19.016;2023-07-09T08:16:07;100392.34;;;29.31;45.39
64683;BME280;51107;47.652;19.016;2023-07-09T08:18:36;100394.13;;;29.63;47.34
64683;BME280;51107;47.652;19.016;2023-07-09T08:21:05;100395.41;;;29.55;48.36
64683;BME280;51107;47.652;19.016;2023-07-09T08:23:33;100395.53;;;29.81;46.75
64683;BME280;51107;47.652;19.016;2023-07-09T08:26:03;100393.13;;;29.85;44.13
64683;BME280;51107;47.652;19.016;2023-07-09T08:28:34;100393.69;;;29.97;45.60
64683;BME280;51107;47.652;19.016;2023-07-09T08:31:03;100396.44;;;30.33;43.15
64683;BME280;51107;47.652;19.016;2023-07-09T08:33:32;100386.22;;;30.14;35.17
64683;BME280;51107;47.652;19.016;2023-07-09T08:36:02;100390.78;;;30.14;35.84
64683;BME280;51107;47.652;19.016;2023-07-09T08:38:30;100395.63;;;30.22;34.13
64683;BME280;51107;47.652;19.016;2023-07-09T08:41:02;100394.00;;;30.16;33.04
64683;BME280;51107;47.652;19.016;2023-07-09T08:49:13;100382.50;;;30.62;36.69
64683;BME280;51107;47.652;19.016;2023-07-09T08:51:43;100390.56;;;30.52;32.90
64683;BME280;51107;47.652;19.016;2023-07-09T08:54:26;100392.72;;;30.75;33.00
64683;BME280;51107;47.652;19.016;2023-07-09T08:56:56;100384.09;;;30.78;37.16
64683;BME280;51107;47.652;19.016;2023-07-09T08:59:28;100390.53;;;31.03;32.88
64683;BME280;51107;47.652;19.016;2023-07-09T09:01:58;100385.41;;;31.12;36.73
64683;BME280;51107;47.652;19.016;2023-07-09T09:04:31;100381.88;;;31.22;31.86
64683;BME280;51107;47.652;19.016;2023-07-09T09:09:57;100385.41;;;31.12;32.43
64683;BME280;51107;47.652;19.016;2023-07-09T09:12:35;100391.28;;;31.29;34.11
64683;BME280;51107;47.652;19.016;2023-07-09T09:15:17;100386.09;;;31.48;32.96
64683;BME280;51107;47.652;19.016;2023-07-09T09:17:50;100392.25;;;31.54;29.45
64683;BME280;51107;47.652;19.016;2023-07-09T09:20:21;100384.66;;;31.72;33.06
64683;BME280;51107;47.652;19.016;2023-07-09T09:23:13;100389.31;;;31.50;30.70
64683;BME280;51107;47.652;19.016;2023-07-09T09:25:56;100395.28;;;31.42;30.09
64683;BME280;51107;47.652;19.016;2023-07-09T09:28:41;100387.66;;;31.70;32.55
64683;BME280;51107;47.652;19.016;2023-07-09T09:31:12;100390.00;;;31.82;32.80
64683;BME280;51107;47.652;19.016;2023-07-09T09:33:45;100391.03;;;31.91;30.35
64683;BME280;51107;47.652;19.016;2023-07-09T09:36:21;100387.50;;;31.96;33.19
64683;BME280;51107;47.652;19.016;2023-07-09T09:38:50;100387.41;;;32.11;30.54
64683;BME280;51107;47.652;19.016;2023-07-09T09:41:24;100388.75;;;32.09;30.87
64683;BME280;51107;47.652;19.016;2023-07-09T09:43:54;100385.91;;;31.95;33.03
64683;BME280;51107;47.652;19.016;2023-07-09T09:46:25;100396.37;;;32.01;31.95
64683;BME280;51107;47.652;19.016;2023-07-09T09:48:59;100393.31;;;32.18;32.23
64683;BME280;51107;47.652;19.016;2023-07-09T09:51:28;100394.16;;;32.09;30.57
64683;BME280;51107;47.652;19.016;2023-07-09T09:54:01;100384.59;;;31.87;31.11
64683;BME280;51107;47.652;19.016;2023-07-09T09:56:34;100388.78;;;32.04;29.17
64683;BME280;51107;47.652;19.016;2023-07-09T09:59:04;100376.47;;;31.92;29.49
64683;BME280;51107;47.652;19.016;2023-07-09T10:01:35;100385.50;;;32.12;29.60
64683;BME280;51107;47.652;19.016;2023-07-09T10:04:06;100373.44;;;32.04;29.50
64683;BME280;51107;47.652;19.016;2023-07-09T10:06:46;100374.56;;;31.98;29.63
64683;BME280;51107;47.652;19.016;2023-07-09T10:09:30;100375.81;;;32.16;28.49
64683;BME280;51107;47.652;19.016;2023-07-09T10:12:13;100373.53;;;31.89;30.83
64683;BME280;51107;47.652;19.016;2023-07-09T10:14:56;100369.19;;;31.93;29.05
64683;BME280;51107;47.652;19.016;2023-07-09T10:20:25;100367.91;;;31.85;33.59
64683;BME280;51107;47.652;19.016;2023-07-09T10:25:46;100369.69;;;32.00;32.70
64683;BME280;51107;47.652;19.016;2023-07-09T10:39:02;100369.88;;;31.64;30.47
64683;BME280;51107;47.652;19.016;2023-07-09T10:41:35;100365.59;;;31.58;29.63
64683;BME280;51107;47.652;19.016;2023-07-09T10:44:13;100361.84;;;31.59;28.67
64683;BME280;51107;47.652;19.016;2023-07-09T10:46:48;100363.72;;;31.63;31.34
64683;BME280;51107;47.652;19.016;2023-07-09T10:49:19;100362.37;;;31.61;29.60
64683;BME280;51107;47.652;19.016;2023-07-09T10:51:53;100355.78;;;31.17;30.82
64683;BME280;51107;47.652;19.016;2023-07-09T10:54:32;100356.06;;;31.10;30.98
64683;BME280;51107;47.652;19.016;2023-07-09T10:57:12;100364.69;;;31.02;30.02
64683;BME280;51107;47.652;19.016;2023-07-09T10:59:46;100360.44;;;30.49;31.72
64683;BME280;51107;47.652;19.016;2023-07-09T11:02:33;100353.41;;;30.12;31.33
64683;BME280;51107;47.652;19.016;2023-07-09T11:05:04;100348.84;;;30.39;31.54
64683;BME280;51107;47.652;19.016;2023-07-09T11:07:40;100339.50;;;30.57;33.50
64683;BME280;51107;47.652;19.016;2023-07-09T11:10:20;100340.81;;;30.75;31.96
64683;BME280;51107;47.652;19.016;2023-07-09T11:13:13;100342.66;;;31.05;32.38
64683;BME280;51107;47.652;19.016;2023-07-09T11:15:45;100349.81;;;31.36;31.57
64683;BME280;51107;47.652;19.016;2023-07-09T11:18:26;100345.56;;;31.14;33.16
64683;BME280;51107;47.652;19.016;2023-07-09T11:21:05;100348.34;;;30.83;34.00
64683;BME280;51107;47.652;19.016;2023-07-09T11:23:55;100346.44;;;30.42;33.52
64683;BME280;51107;47.652;19.016;2023-07-09T11:26:30;100349.94;;;30.32;34.10
64683;BME280;51107;47.652;19.016;2023-07-09T11:31:42;100338.94;;;30.24;34.73
64683;BME280;51107;47.652;19.016;2023-07-09T11:41:58;100339.16;;;30.84;33.79
64683;BME280;51107;47.652;19.016;2023-07-09T11:44:32;100336.16;;;31.11;30.87
64683;BME280;51107;47.652;19.016;2023-07-09T11:55:38;100323.03;;;30.84;32.55
64683;BME280;51107;47.652;19.016;2023-07-09T11:58:14;100327.88;;;30.77;31.89
64683;BME280;51107;47.652;19.016;2023-07-09T12:00:48;100326.56;;;30.59;30.91
64683;BME280;51107;47.652;19.016;2023-07-09T12:03:20;100319.56;;;30.22;35.13
64683;BME280;51107;47.652;19.016;2023-07-09T12:05:52;100319.06;;;30.56;31.54
64683;BME280;51107;47.652;19.016;2023-07-09T12:08:47;100316.88;;;30.73;32.43
64683;BME280;51107;47.652;19.016;2023-07-09T12:11:24;100315.81;;;30.59;34.42
64683;BME280;51107;47.652;19.016;2023-07-09T12:13:53;100311.28;;;30.54;32.47
64683;BME280;51107;47.652;19.016;2023-07-09T12:16:36;100306.13;;;30.63;32.33
64683;BME280;51107;47.652;19.016;2023-07-09T12:19:06;100300.50;;;30.59;33.12
64683;BME280;51107;47.652;19.016;2023-07-09T12:21:38;100309.34;;;30.70;32.36
64683;BME280;51107;47.652;19.016;2023-07-09T12:26:54;100301.25;;;30.86;32.28
64683;BME280;51107;47.652;19.016;2023-07-09T12:29:25;100295.34;;;30.78;33.12
64683;BME280;51107;47.652;19.016;2023-07-09T12:31:59;100297.78;;;30.75;32.73
64683;BME280;51107;47.652;19.016;2023-07-09T12:34:30;100295.13;;;30.54;34.12
64683;BME280;51107;47.652;19.016;2023-07-09T12:36:59;100301.81;;;30.41;33.59
64683;BME280;51107;47.652;19.016;2023-07-09T12:39:31;100297.28;;;30.42;31.46
64683;BME280;51107;47.652;19.016;2023-07-09T12:42:01;100293.75;;;30.62;30.08
64683;BME280;51107;47.652;19.016;2023-07-09T12:44:34;100289.47;;;30.30;33.03
64683;BME280;51107;47.652;19.016;2023-07-09T12:47:04;100287.09;;;30.18;33.57
64683;BME280;51107;47.652;19.016;2023-07-09T12:49:38;100283.06;;;30.15;33.20
64683;BME280;51107;47.652;19.016;2023-07-09T12:52:18;100285.19;;;30.08;34.40
64683;BME280;51107;47.652;19.016;2023-07-09T12:55:01;100277.13;;;29.93;33.11
64683;BME280;51107;47.652;19.016;2023-07-09T12:57:30;100275.19;;;29.83;33.27
64683;BME280;51107;47.652;19.016;2023-07-09T13:00:01;100271.97;;;29.76;33.97
64683;BME280;51107;47.652;19.016;2023-07-09T13:02:37;100266.12;;;30.05;32.91
64683;BME280;51107;47.652;19.016;2023-07-09T13:05:22;100266.09;;;30.36;33.81
64683;BME280;51107;47.652;19.016;2023-07-09T13:08:00;100268.22;;;30.64;30.10
64683;BME280;51107;47.652;19.016;2023-07-09T13:10:37;100265.56;;;30.49;30.35
64683;BME280;51107;47.652;19.016;2023-07-09T13:13:11;100261.53;;;30.31;32.39
64683;BME280;51107;47.652;19.016;2023-07-09T13:15:42;100257.50;;;30.33;32.41
64683;BME280;51107;47.652;19.016;2023-07-09T13:18:13;100260.16;;;30.39;32.87
64683;BME280;51107;47.652;19.016;2023-07-09T13:20:44;100265.28;;;30.45;33.58
64683;BME280;51107;47.652;19.016;2023-07-09T13:23:18;100256.16;;;30.46;32.33
64683;BME280;51107;47.652;19.016;2023-07-09T13:25:47;100266.38;;;30.49;30.33
64683;BME280;51107;47.652;19.016;2023-07-09T13:28:22;100266.63;;;30.32;30.55
64683;BME280;51107;47.652;19.016;2023-07-09T13:30:52;100262.59;;;30.40;31.20
64683;BME280;51107;47.652;19.016;2023-07-09T13:33:21;100260.19;;;30.33;32.55
64683;BME280;51107;47.652;19.016;2023-07-09T13:35:50;100252.94;;;30.24;33.91
64683;BME280;51107;47.652;19.016;2023-07-09T13:38:23;100253.19;;;30.27;32.92
64683;BME280;51107;47.652;19.016;2023-07-09T13:40:55;100252.94;;;30.13;31.90
64683;BME280;51107;47.652;19.016;2023-07-09T13:43:32;100245.69;;;30.24;31.45
64683;BME280;51107;47.652;19.016;2023-07-09T13:46:03;100247.03;;;30.27;31.64
64683;BME280;51107;47.652;19.016;2023-07-09T13:48:34;100246.47;;;30.30;32.90